Time;durP1;ratioP1;P1;durP2;ratioP2;P2;SDS_P1;SDS_P2;PMS_P1;PMS_P2;Temp;Humidity;BMP_temperature;BMP_pressure;BME280_temperature;BME280_humidity;BME280_pressure;Samples;Min_cycle;Max_cycle;Signal;HPM_P1;HPM_P2
2021/06/28 00:00:26;;;;;;;6.65;4.75;;;;;;;20.40;66.99;99612.78;5157536;27;20404;-68
2021/06/28 00:02:55;;;;;;;5.90;4.15;;;;;;;20.37;67.11;99605.16;5157379;27;20054;-68
2021/06/28 00:05:27;;;;;;;6.15;4.72;;;;;;;20.26;67.56;99612.50;5157370;27;20034;-69
2021/06/28 00:07:56;;;;;;;6.22;4.60;;;;;;;20.28;67.66;99608.09;5157431;27;20051;-68
2021/06/28 00:10:27;;;;;;;8.07;4.65;;;;;;;20.08;67.86;99602.88;5157483;27;20062;-68
2021/06/28 00:13:01;;;;;;;7.65;5.07;;;;;;;19.73;68.77;99607.69;5158186;27;20484;-69
2021/06/28 00:15:37;;;;;;;6.63;5.03;;;;;;;19.52;69.58;99605.09;5157726;27;20050;-69
2021/06/28 00:18:07;;;;;;;6.88;4.88;;;;;;;19.52;69.93;99613.72;5157808;27;20409;-68
2021/06/28 00:20:38;;;;;;;7.65;5.25;;;;;;;19.52;70.05;99593.00;5157292;27;20552;-69
2021/06/28 00:23:09;;;;;;;7.18;4.80;;;;;;;19.73;69.84;99610.28;5157149;27;20069;-68
2021/06/28 00:25:40;;;;;;;6.13;4.78;;;;;;;19.85;69.69;99620.19;5157026;27;20061;-68
2021/06/28 00:28:10;;;;;;;7.70;4.80;;;;;;;19.80;69.66;99614.34;5156983;27;20066;-68
2021/06/28 00:30:41;;;;;;;;;;;;;;;19.76;69.98;99607.59;5157511;27;20476;-68
2021/06/28 00:33:12;;;;;;;6.32;4.68;;;;;;;19.77;69.82;99609.25;5157209;27;20364;-69
2021/06/28 00:35:43;;;;;;;7.78;4.85;;;;;;;19.75;70.10;99605.03;5157366;27;20129;-68
2021/06/28 00:38:13;;;;;;;7.63;5.05;;;;;;;19.73;70.32;99612.88;5156838;27;20051;-68
2021/06/28 00:40:44;;;;;;;6.63;5.05;;;;;;;19.85;69.86;99607.22;5156625;27;20054;-68
2021/06/28 00:43:14;;;;;;;7.57;4.80;;;;;;;19.86;69.89;99592.53;5157028;27;20477;-68
2021/06/28 00:45:48;;;;;;;7.28;5.05;;;;;;;19.82;69.83;99609.13;5156982;27;20095;-68
2021/06/28 00:48:19;;;;;;;6.95;5.05;;;;;;;19.79;70.00;99611.81;5156586;27;20138;-68
2021/06/28 00:50:51;;;;;;;8.82;4.85;;;;;;;19.81;70.15;99604.81;5156503;27;20046;-68
2021/06/28 00:53:22;;;;;;;7.10;4.80;;;;;;;19.88;70.03;99617.47;5156456;27;20043;-68
2021/06/28 00:55:52;;;;;;;7.72;4.95;;;;;;;19.90;69.96;99613.06;5156384;27;20047;-68
2021/06/28 00:58:21;;;;;;;7.15;5.13;;;;;;;19.66;70.06;99580.38;5156395;27;20099;-68
2021/06/28 01:00:50;;;;;;;8.45;5.57;;;;;;;19.92;69.90;99619.03;5156355;27;20054;-68
2021/06/28 01:03:19;;;;;;;7.30;5.32;;;;;;;19.89;69.96;99613.97;5156293;27;20110;-68
2021/06/28 01:05:50;;;;;;;7.53;5.67;;;;;;;19.84;70.07;99612.47;5155743;27;20163;-68
2021/06/28 01:08:19;;;;;;;8.88;5.90;;;;;;;19.89;70.10;99602.78;5156099;27;20271;-67
2021/06/28 01:10:48;;;;;;;;;;;;;;;19.98;69.72;99615.34;5156518;27;20046;-68
2021/06/28 01:13:17;;;;;;;7.05;5.55;;;;;;;20.02;69.42;99599.63;5156053;27;19919;-67
2021/06/28 01:15:47;;;;;;;9.05;5.50;;;;;;;20.06;69.43;99610.69;5156332;27;20039;-67
2021/06/28 01:18:17;;;;;;;6.88;5.30;;;;;;;20.06;69.12;99606.38;5137617;27;20091;-68
2021/06/28 01:20:46;;;;;;;7.60;5.80;;;;;;;20.05;68.94;99615.06;5155926;27;20051;-68
2021/06/28 01:23:22;;;;;;;7.28;5.65;;;;;;;19.96;69.23;99618.00;5155887;27;20073;-67
2021/06/28 01:25:53;;;;;;;8.88;5.85;;;;;;;19.90;69.05;99613.06;5155851;27;20142;-67
2021/06/28 01:28:22;;;;;;;11.57;6.45;;;;;;;19.87;69.31;99610.59;5155875;27;20540;-67
2021/06/28 01:30:52;;;;;;;8.35;5.60;;;;;;;19.84;69.34;99613.28;5156026;27;20177;-68
2021/06/28 01:33:21;;;;;;;7.60;5.72;;;;;;;19.82;69.35;99611.69;5156054;27;20483;-69
2021/06/28 01:35:50;;;;;;;10.10;6.03;;;;;;;19.78;69.39;99610.97;5155736;27;20057;-68
2021/06/28 01:38:21;;;;;;;9.32;5.80;;;;;;;19.81;69.32;99605.66;5155636;27;20152;-67
2021/06/28 01:40:51;;;;;;;8.50;6.05;;;;;;;19.77;69.42;99604.09;5155664;27;20555;-68
2021/06/28 01:43:23;;;;;;;9.95;5.82;;;;;;;19.71;69.55;99612.09;5155647;27;20055;-69
2021/06/28 01:45:53;;;;;;;7.47;5.80;;;;;;;19.73;69.75;99617.22;5155610;27;20050;-69
2021/06/28 01:48:23;;;;;;;8.45;6.10;;;;;;;19.72;69.70;99615.53;5155519;27;20046;-68
2021/06/28 01:50:53;;;;;;;8.88;6.30;;;;;;;19.64;69.74;99615.00;5155697;27;20091;-67
2021/06/28 01:53:24;;;;;;;10.30;6.15;;;;;;;19.57;69.80;99609.22;5155440;27;20057;-69
2021/06/28 01:55:53;;;;;;;8.77;6.13;;;;;;;19.56;70.00;99604.91;5155442;27;20453;-68
2021/06/28 01:58:22;;;;;;;8.23;5.67;;;;;;;19.59;70.29;99604.81;5155392;27;20074;-68
2021/06/28 02:00:54;;;;;;;7.93;5.75;;;;;;;19.56;69.87;99609.25;5155121;27;20274;-68
2021/06/28 02:03:25;;;;;;;8.95;5.72;;;;;;;19.46;70.12;99608.75;5155141;27;20043;-68
2021/06/28 02:05:56;;;;;;;7.53;5.45;;;;;;;19.43;70.00;99608.91;5155363;27;20055;-69
2021/06/28 02:08:29;;;;;;;8.25;5.45;;;;;;;19.50;69.89;99619.84;5155300;27;20082;-69
2021/06/28 02:11:01;;;;;;;6.95;5.18;;;;;;;19.49;69.77;99608.66;5155223;27;20141;-69
2021/06/28 02:13:35;;;;;;;9.32;5.97;;;;;;;19.44;69.63;99602.78;5155113;27;20107;-69
2021/06/28 02:16:05;;;;;;;9.13;5.22;;;;;;;19.38;69.75;99610.81;5155229;27;20077;-69
2021/06/28 02:18:34;;;;;;;7.65;5.40;;;;;;;19.38;69.88;99610.81;5158017;27;20054;-69
2021/06/28 02:21:04;;;;;;;7.90;5.60;;;;;;;19.36;69.75;99622.97;5159805;27;20062;-69
2021/06/28 02:23:36;;;;;;;9.75;5.68;;;;;;;19.30;69.92;99617.97;5159398;27;20070;-69
2021/06/28 02:26:09;;;;;;;8.05;5.70;;;;;;;19.23;70.07;99616.50;5159419;27;20046;-68
2021/06/28 02:28:39;;;;;;;8.50;5.78;;;;;;;19.20;70.43;99616.63;5159216;27;20403;-69
2021/06/28 02:31:10;;;;;;;8.88;6.03;;;;;;;19.17;70.36;99614.16;5140877;27;20057;-69
2021/06/28 02:33:41;;;;;;;6.47;5.35;;;;;;;19.19;70.54;99614.94;5159293;27;20119;-69
2021/06/28 02:36:11;;;;;;;8.02;5.75;;;;;;;19.24;70.32;99603.50;5159187;27;20054;-68
2021/06/28 02:38:43;;;;;;;8.77;5.60;;;;;;;19.20;70.25;99612.28;5159663;27;20099;-69
2021/06/28 02:41:12;;;;;;;7.60;5.72;;;;;;;19.17;70.30;99616.75;5159084;27;20460;-69
2021/06/28 02:44:01;;;;;;;;;;;;;;;19.05;70.82;99617.19;5107756;27;20051;-69
2021/06/28 02:46:31;;;;;;;9.80;5.65;;;;;;;19.13;70.88;99625.50;5158937;27;20280;-68
2021/06/28 02:49:00;;;;;;;8.90;5.25;;;;;;;19.12;70.70;99619.47;5158920;27;20137;-69
2021/06/28 02:51:29;;;;;;;7.22;5.10;;;;;;;19.01;70.62;99610.44;5158731;27;20111;-69
2021/06/28 02:53:59;;;;;;;7.63;5.83;;;;;;;19.05;70.79;99617.19;5158844;27;20548;-68
2021/06/28 02:56:28;;;;;;;7.40;5.97;;;;;;;18.95;70.90;99618.41;5158834;27;20046;-69
2021/06/28 02:58:59;;;;;;;10.10;6.27;;;;;;;18.76;71.27;99614.78;5159022;27;20111;-69
2021/06/28 03:01:42;;;;;;;10.70;6.35;;;;;;;18.78;71.53;99618.16;5133002;27;20368;-68
2021/06/28 03:04:24;;;;;;;8.85;5.93;;;;;;;18.91;71.49;99619.44;5133023;27;20382;-66
2021/06/28 03:07:06;;;;;;;10.48;5.57;;;;;;;18.96;71.43;99612.31;5132402;27;20374;-68
2021/06/28 03:09:47;;;;;;;10.57;6.40;;;;;;;19.07;71.15;99605.03;5132997;27;20840;-68
2021/06/28 03:12:30;;;;;;;9.52;6.55;;;;;;;19.09;70.83;99613.59;5132950;27;20699;-69
2021/06/28 03:15:15;;;;;;;7.85;5.97;;;;;;;19.07;71.05;99612.81;5132893;27;20371;-68
2021/06/28 03:17:56;;;;;;;8.95;6.07;;;;;;;19.01;71.14;99619.03;5133051;27;20368;-69
2021/06/28 03:20:37;;;;;;;8.82;6.25;;;;;;;19.00;71.21;99601.84;5132817;27;20391;-69
2021/06/28 03:23:19;;;;;;;8.35;6.18;;;;;;;19.17;71.07;99606.41;5133036;27;20364;-68
2021/06/28 03:26:00;;;;;;;10.48;6.88;;;;;;;19.24;71.07;99603.50;5132995;27;20352;-68
2021/06/28 03:28:42;;;;;;;10.20;6.10;;;;;;;19.29;70.34;99605.94;5132769;27;20356;-68
2021/06/28 03:31:23;;;;;;;8.35;5.72;;;;;;;19.34;70.76;99604.00;5132505;27;20849;-69
2021/06/28 03:34:05;;;;;;;8.88;6.38;;;;;;;19.35;70.58;99609.16;5133019;27;20379;-70
2021/06/28 03:36:46;;;;;;;8.65;5.75;;;;;;;19.38;70.68;99613.41;5132981;27;20355;-69
2021/06/28 03:39:27;;;;;;;9.35;6.35;;;;;;;19.35;70.74;99622.09;5132984;27;20364;-69
2021/06/28 03:42:10;;;;;;;8.30;5.93;;;;;;;19.43;70.66;99624.44;5132921;27;20383;-69
2021/06/28 03:44:53;;;;;;;9.18;6.43;;;;;;;19.55;70.41;99629.16;5132866;27;20701;-69
2021/06/28 03:47:35;;;;;;;7.80;6.22;;;;;;;19.58;70.25;99621.22;5133003;27;20368;-69
2021/06/28 03:50:18;;;;;;;8.40;6.05;;;;;;;19.61;69.94;99628.91;5132991;27;20810;-69
2021/06/28 03:52:59;;;;;;;8.80;6.40;;;;;;;19.71;69.85;99630.22;5132967;27;20368;-69
2021/06/28 03:55:40;;;;;;;8.32;6.38;;;;;;;19.81;69.55;99628.13;5132969;27;20356;-69
2021/06/28 03:58:34;;;;;;;7.72;6.45;;;;;;;19.82;69.46;99630.66;5132777;27;20403;-69
2021/06/28 04:01:15;;;;;;;10.43;6.38;;;;;;;19.92;69.54;99634.56;5132160;27;20384;-69
2021/06/28 04:03:57;;;;;;;9.02;6.13;;;;;;;20.03;69.02;99627.22;5132983;27;20352;-69
2021/06/28 04:06:38;;;;;;;8.85;6.03;;;;;;;20.08;68.76;99630.47;5132965;27;20813;-69
2021/06/28 04:09:19;;;;;;;9.10;6.45;;;;;;;20.19;68.50;99634.38;5132943;27;20729;-68
2021/06/28 04:12:01;;;;;;;10.15;6.43;;;;;;;20.24;68.34;99640.25;5132933;27;20372;-69
2021/06/28 04:14:42;;;;;;;7.30;5.35;;;;;;;20.35;68.22;99643.25;5132692;27;20368;-68
2021/06/28 04:17:23;;;;;;;9.10;5.75;;;;;;;20.40;67.77;99636.97;5132398;27;20352;-67
2021/06/28 04:20:07;;;;;;;10.57;5.63;;;;;;;20.44;67.57;99635.09;5133000;27;20860;-67
2021/06/28 04:22:49;;;;;;;9.43;6.15;;;;;;;20.53;67.56;99639.91;5133034;27;20363;-67
2021/06/28 04:25:29;;;;;;;9.82;6.28;;;;;;;20.64;67.30;99635.09;5132273;27;20364;-65
2021/06/28 04:28:11;;;;;;;10.35;5.80;;;;;;;20.80;66.87;99643.94;5132979;27;20375;-66
2021/06/28 04:30:52;;;;;;;8.10;5.78;;;;;;;20.93;66.49;99645.06;5132991;27;20452;-66
2021/06/28 04:33:34;;;;;;;9.18;5.47;;;;;;;21.10;66.19;99642.63;5132995;27;20717;-68
2021/06/28 04:36:15;;;;;;;9.52;5.88;;;;;;;21.36;65.91;99642.28;5132163;27;20371;-68
2021/06/28 04:38:56;;;;;;;10.75;6.47;;;;;;;21.57;65.12;99650.03;5133003;27;20379;-67
2021/06/28 04:41:38;;;;;;;7.22;5.70;;;;;;;21.67;64.30;99640.88;5132981;27;20709;-68
2021/06/28 04:44:19;;;;;;;9.70;6.15;;;;;;;21.78;63.99;99649.03;5132971;27;20833;-69
2021/06/28 04:47:01;;;;;;;9.18;5.70;;;;;;;21.93;63.52;99654.38;5131481;27;20411;-68
2021/06/28 04:49:42;;;;;;;9.52;5.72;;;;;;;22.01;63.18;99656.63;5111944;27;20409;-68
2021/06/28 04:52:23;;;;;;;7.45;5.70;;;;;;;22.20;62.63;99646.16;5132386;27;20375;-67
2021/06/28 04:55:07;;;;;;;10.00;5.97;;;;;;;22.35;62.38;99643.66;5132787;27;20352;-68
2021/06/28 04:57:50;;;;;;;7.18;5.50;;;;;;;22.54;61.64;99635.78;5132886;27;20686;-67
2021/06/28 05:00:36;;;;;;;10.48;5.50;;;;;;;22.67;61.15;99636.91;5132979;27;20829;-67
2021/06/28 05:03:20;;;;;;;7.78;5.38;;;;;;;22.75;60.53;99641.72;5132957;27;20856;-68
2021/06/28 05:06:18;;;;;;;8.30;5.65;;;;;;;22.75;60.38;99639.94;5132178;27;20928;-68
2021/06/28 05:09:13;;;;;;;8.57;5.53;;;;;;;22.84;60.25;99638.63;5171848;27;20440;-68
2021/06/28 05:11:55;;;;;;;6.88;5.00;;;;;;;23.06;60.22;99641.81;5132960;27;20371;-67
2021/06/28 05:14:37;;;;;;;8.60;4.95;;;;;;;23.27;59.80;99638.09;5132998;27;20364;-68
2021/06/28 05:17:18;;;;;;;7.85;5.47;;;;;;;23.42;59.24;99639.06;5132150;27;20374;-68
2021/06/28 05:20:04;;;;;;;7.63;5.82;;;;;;;23.42;58.82;99632.06;5132955;27;20713;-66
2021/06/28 05:22:46;;;;;;;7.93;5.78;;;;;;;23.41;58.83;99633.00;5132964;27;20368;-67
2021/06/28 05:25:30;;;;;;;6.60;5.30;;;;;;;23.53;58.46;99637.56;5132940;27;20364;-68
2021/06/28 05:28:13;;;;;;;7.90;5.65;;;;;;;23.67;58.50;99627.22;5132936;27;20860;-68
2021/06/28 05:30:55;;;;;;;7.32;5.20;;;;;;;23.75;58.19;99627.66;5132503;27;20371;-68
2021/06/28 05:33:36;;;;;;;7.72;5.32;;;;;;;23.96;58.02;99639.47;5132977;27;20386;-67
2021/06/28 05:36:17;;;;;;;6.55;5.05;;;;;;;24.15;57.55;99638.47;5133005;27;20352;-67
2021/06/28 05:39:03;;;;;;;7.60;5.50;;;;;;;24.31;57.12;99634.03;5132322;27;20364;-67
2021/06/28 05:41:48;;;;;;;7.90;5.50;;;;;;;24.24;56.91;99637.94;5132314;27;20425;-68
2021/06/28 05:44:30;;;;;;;8.55;5.70;;;;;;;24.29;56.97;99647.19;5132903;27;20834;-67
2021/06/28 05:47:13;;;;;;;8.18;5.78;;;;;;;24.45;56.73;99641.94;5132853;27;20362;-68
2021/06/28 05:49:56;;;;;;;7.18;5.35;;;;;;;24.57;56.44;99646.44;5132957;27;20348;-67
2021/06/28 05:52:37;;;;;;;6.25;4.88;;;;;;;24.67;56.05;99647.56;5132856;27;20821;-67
2021/06/28 05:55:17;;;;;;;7.07;5.40;;;;;;;24.72;55.96;99650.75;5108507;27;1448211;-67
2021/06/28 05:57:58;;;;;;;9.10;5.18;;;;;;;24.80;55.54;99659.00;5132353;27;20382;-67
2021/06/28 06:00:40;;;;;;;8.50;5.30;;;;;;;24.95;55.36;99658.09;5132628;27;20370;-67
2021/06/28 06:03:21;;;;;;;8.90;5.28;;;;;;;25.08;55.32;99656.41;5132972;27;20413;-67
2021/06/28 06:06:09;;;;;;;7.05;5.32;;;;;;;25.19;54.72;99650.56;5132481;27;20372;-67
2021/06/28 06:08:50;;;;;;;7.03;5.07;;;;;;;25.31;54.36;99652.41;5133059;27;20356;-67
2021/06/28 06:11:32;;;;;;;8.40;5.53;;;;;;;25.21;54.46;99644.31;5133014;27;20356;-67
2021/06/28 06:14:15;;;;;;;7.05;4.60;;;;;;;25.33;54.27;99649.69;5132459;27;20375;-68
2021/06/28 06:16:59;;;;;;;7.57;5.50;;;;;;;25.50;53.97;99644.31;5132899;27;20356;-67
2021/06/28 06:19:42;;;;;;;7.45;5.20;;;;;;;25.67;53.76;99647.56;5132160;27;20371;-68
2021/06/28 06:22:23;;;;;;;9.15;5.13;;;;;;;25.83;53.22;99652.63;5132722;27;20352;-67
2021/06/28 06:25:10;;;;;;;6.97;5.43;;;;;;;25.92;52.79;99657.28;5133009;27;20359;-67
2021/06/28 06:27:51;;;;;;;8.15;5.15;;;;;;;26.06;52.81;99656.41;5132328;27;20383;-68
2021/06/28 06:30:33;;;;;;;6.30;4.93;;;;;;;26.18;52.28;99653.84;5131432;27;20372;-67
2021/06/28 06:33:17;;;;;;;5.78;4.60;;;;;;;26.28;52.49;99660.16;5132051;27;20379;-67
2021/06/28 06:35:59;;;;;;;7.30;4.82;;;;;;;26.40;51.79;99663.75;5132289;27;20356;-67
2021/06/28 06:38:40;;;;;;;6.68;4.90;;;;;;;26.38;52.09;99660.41;5132268;27;20376;-67
2021/06/28 06:41:21;;;;;;;7.70;5.25;;;;;;;26.34;51.68;99654.56;5132135;27;20372;-67
2021/06/28 06:44:03;;;;;;;6.75;4.90;;;;;;;26.44;52.06;99645.13;5132730;27;20368;-68
2021/06/28 06:46:44;;;;;;;8.43;4.82;;;;;;;26.60;51.21;99658.91;5132830;27;20348;-68
2021/06/28 06:49:26;;;;;;;7.03;5.35;;;;;;;26.73;51.50;99656.28;5132276;27;20375;-68
2021/06/28 06:52:07;;;;;;;6.45;4.80;;;;;;;26.66;50.97;99647.16;5132932;27;20371;-67
2021/06/28 06:54:48;;;;;;;7.28;5.13;;;;;;;26.75;50.98;99661.44;5132998;27;20382;-68
2021/06/28 06:57:30;;;;;;;9.27;4.93;;;;;;;26.77;50.81;99656.94;5132570;27;20356;-67
2021/06/28 07:00:15;;;;;;;7.88;5.18;;;;;;;26.85;51.39;99654.66;5132148;27;20841;-69
2021/06/28 07:02:44;;;;;;;6.90;4.78;;;;;;;26.87;51.18;99663.25;5131968;27;20048;-69
2021/06/28 07:05:26;;;;;;;7.80;4.97;;;;;;;27.04;50.48;99665.56;5132689;27;20845;-68
2021/06/28 07:08:09;;;;;;;6.85;4.95;;;;;;;27.26;50.24;99666.59;5132706;27;20391;-69
2021/06/28 07:10:51;;;;;;;6.80;4.88;;;;;;;27.37;49.72;99671.09;5132268;27;20376;-68
2021/06/28 07:13:32;;;;;;;6.90;4.72;;;;;;;27.37;48.87;99665.00;5132841;27;20372;-68
2021/06/28 07:16:14;;;;;;;7.13;5.28;;;;;;;27.26;50.45;99666.59;5132079;27;20371;-68
2021/06/28 07:18:56;;;;;;;5.80;4.65;;;;;;;27.48;49.84;99665.97;5132369;27;20378;-68
2021/06/28 07:21:38;;;;;;;8.30;5.13;;;;;;;27.45;50.24;99668.78;5132976;27;20364;-69
2021/06/28 07:24:19;;;;;;;8.23;5.18;;;;;;;27.72;48.86;99669.47;5132245;27;20417;-69
2021/06/28 07:27:01;;;;;;;8.00;4.90;;;;;;;27.93;47.91;99662.69;5132716;27;20374;-69
2021/06/28 07:29:42;;;;;;;6.13;4.90;;;;;;;27.95;48.23;99659.13;5132986;27;20371;-68
2021/06/28 07:32:37;;;;;;;7.40;5.07;;;;;;;28.16;48.29;99657.59;5131791;27;20380;-69
2021/06/28 07:35:18;;;;;;;5.78;4.50;;;;;;;28.25;48.76;99654.28;5132713;27;20380;-68
2021/06/28 07:38:00;;;;;;;7.93;5.20;;;;;;;28.54;47.40;99658.22;5132452;27;20374;-69
2021/06/28 07:40:41;;;;;;;6.93;4.72;;;;;;;28.70;46.60;99658.75;5132114;27;20725;-69
2021/06/28 07:43:24;;;;;;;5.95;4.40;;;;;;;28.73;47.07;99658.53;5132868;27;20781;-69
2021/06/28 07:46:06;;;;;;;5.75;3.90;;;;;;;28.93;45.91;99657.00;5092026;27;20361;-68
2021/06/28 07:48:47;;;;;;;6.10;4.30;;;;;;;29.09;45.68;99658.34;5131876;27;20391;-69
2021/06/28 07:51:35;;;;;;;7.97;4.43;;;;;;;29.24;44.95;99651.09;5132324;27;20364;-68
2021/06/28 07:54:18;;;;;;;6.32;4.32;;;;;;;29.28;44.71;99662.19;5132010;27;20394;-68
2021/06/28 07:56:59;;;;;;;6.25;4.07;;;;;;;29.07;45.79;99662.91;5132298;27;20359;-68
2021/06/28 07:59:41;;;;;;;6.32;4.30;;;;;;;29.05;46.25;99664.81;5132413;27;20375;-68
2021/06/28 08:02:23;;;;;;;6.57;4.82;;;;;;;28.88;47.15;99662.63;5132308;27;20363;-68
2021/06/28 08:05:05;;;;;;;6.30;4.30;;;;;;;28.91;46.83;99665.03;5132868;27;20872;-69
2021/06/28 08:07:46;;;;;;;6.50;4.30;;;;;;;28.87;46.66;99662.72;5145167;27;1425740;-69
2021/06/28 08:10:30;;;;;;;6.50;4.57;;;;;;;29.10;45.72;99665.28;5132136;27;20368;-68
2021/06/28 08:13:12;;;;;;;6.60;4.95;;;;;;;29.18;45.87;99656.78;5131330;27;20388;-68
2021/06/28 08:15:54;;;;;;;6.65;4.40;;;;;;;29.30;45.99;99657.69;5131474;27;20699;-68
2021/06/28 08:18:37;;;;;;;6.70;4.18;;;;;;;29.68;46.14;99658.94;5132251;27;20368;-68
2021/06/28 08:21:18;;;;;;;5.90;4.45;;;;;;;29.84;46.33;99658.59;5132275;27;20360;-68
2021/06/28 08:23:59;;;;;;;7.35;4.30;;;;;;;29.68;45.51;99669.47;5131745;27;20379;-68
2021/06/28 08:26:41;;;;;;;6.10;4.47;;;;;;;29.53;45.46;99664.59;5132760;27;20876;-68
2021/06/28 08:29:22;;;;;;;6.13;4.50;;;;;;;29.68;45.79;99669.47;5133034;27;20367;-68
2021/06/28 08:32:04;;;;;;;7.35;4.90;;;;;;;29.92;45.80;99672.00;5132611;27;20360;-69
2021/06/28 08:34:45;;;;;;;8.75;5.10;;;;;;;30.04;44.52;99665.72;5132667;27;20379;-69
2021/06/28 08:37:28;;;;;;;6.50;4.32;;;;;;;30.17;44.20;99671.66;5132037;27;20383;-69
2021/06/28 08:40:11;;;;;;;5.05;4.18;;;;;;;30.21;44.82;99670.44;5132114;27;20371;-69
2021/06/28 08:42:54;;;;;;;6.28;4.20;;;;;;;30.03;45.05;99668.47;5132242;27;20360;-68
2021/06/28 08:45:37;;;;;;;6.53;4.57;;;;;;;30.23;45.60;99668.53;5132108;27;20741;-68
2021/06/28 08:48:20;;;;;;;7.03;4.20;;;;;;;30.27;44.71;99662.03;5132898;27;20356;-68
2021/06/28 08:51:01;;;;;;;5.55;4.22;;;;;;;30.37;44.05;99668.28;5131804;27;20392;-68
2021/06/28 08:53:43;;;;;;;5.35;3.92;;;;;;;30.52;43.76;99670.59;5132460;27;20397;-68
2021/06/28 08:56:24;;;;;;;6.38;4.50;;;;;;;30.44;44.48;99671.22;5131716;27;20368;-69
2021/06/28 08:59:06;;;;;;;5.47;4.00;;;;;;;30.52;43.86;99670.59;5132224;27;20392;-69
2021/06/28 09:01:49;;;;;;;4.90;3.70;;;;;;;30.69;43.87;99672.66;5132404;27;20737;-69
2021/06/28 09:04:30;;;;;;;5.65;4.05;;;;;;;30.81;43.84;99676.91;5132240;27;20395;-70
2021/06/28 09:07:23;;;;;;;4.95;3.90;;;;;;;30.56;44.03;99672.00;5132454;27;20736;-67
2021/06/28 09:10:05;;;;;;;4.97;3.70;;;;;;;30.47;44.69;99669.16;5132961;27;20833;-69
2021/06/28 09:12:51;;;;;;;6.35;4.03;;;;;;;30.21;45.10;99667.81;5133059;27;20368;-68
2021/06/28 09:15:38;;;;;;;4.57;3.75;;;;;;;30.34;44.76;99668.50;5132494;27;20763;-69
2021/06/28 09:18:22;;;;;;;5.35;4.10;;;;;;;30.74;44.24;99681.03;5132411;27;20903;-68
2021/06/28 09:21:08;;;;;;;5.00;3.80;;;;;;;30.78;44.24;99671.88;5132340;27;20764;-69
2021/06/28 09:23:50;;;;;;;5.28;4.10;;;;;;;30.85;44.44;99673.03;5133011;27;20440;-69
2021/06/28 09:26:35;;;;;;;5.50;3.88;;;;;;;30.92;44.22;99674.22;5133291;27;20356;-68
2021/06/28 09:29:16;;;;;;;5.10;3.78;;;;;;;30.99;43.82;99667.47;5132472;27;20359;-69
2021/06/28 09:31:59;;;;;;;5.75;3.78;;;;;;;30.93;43.71;99660.91;5132599;27;20379;-69
2021/06/28 09:34:42;;;;;;;5.53;3.97;;;;;;;31.00;43.37;99656.78;5133005;27;20368;-69
2021/06/28 09:37:26;;;;;;;7.45;4.15;;;;;;;31.25;43.39;99652.88;5132258;27;20371;-69
2021/06/28 09:40:09;;;;;;;5.40;4.30;;;;;;;31.22;42.63;99661.03;5132736;27;20440;-68
2021/06/28 09:42:53;;;;;;;5.38;3.95;;;;;;;31.11;43.52;99653.22;5132120;27;20372;-67
2021/06/28 09:45:41;;;;;;;5.03;4.00;;;;;;;31.08;44.19;99658.75;5132339;27;20394;-68
2021/06/28 09:48:26;;;;;;;5.53;3.55;;;;;;;31.11;43.42;99653.22;5132891;27;20845;-69
2021/06/28 09:51:27;;;;;;;5.50;4.18;;;;;;;31.09;43.29;99649.88;5133012;27;20436;-68
2021/06/28 09:54:25;;;;;;;4.60;3.63;;;;;;;31.40;42.82;99646.28;5091418;27;20740;-69
2021/06/28 09:57:24;;;;;;;6.15;4.00;;;;;;;31.84;42.63;99642.41;5091612;27;20389;-69
2021/06/28 10:00:27;;;;;;;5.35;3.83;;;;;;;31.83;41.54;99639.88;5107186;27;20400;-66
2021/06/28 10:03:32;;;;;;;7.45;3.60;;;;;;;31.36;42.70;99634.28;5194388;27;20874;-69
2021/06/28 10:06:32;;;;;;;5.55;3.45;;;;;;;31.55;42.21;99626.50;5091639;27;20390;-69
2021/06/28 10:09:29;;;;;;;4.28;3.30;;;;;;;31.68;42.31;99621.78;5091338;27;20390;-69
2021/06/28 10:12:21;;;;;;;4.38;3.47;;;;;;;31.83;42.42;99621.38;5197985;27;20720;-69
2021/06/28 10:15:14;;;;;;;6.53;3.42;;;;;;;31.88;42.49;99613.88;5198461;27;20389;-69
2021/06/28 10:18:09;;;;;;;3.90;3.30;;;;;;;31.90;42.33;99614.59;5200974;27;20385;-70
2021/06/28 10:21:02;;;;;;;4.72;3.20;;;;;;;32.17;42.34;99612.13;5196924;27;20388;-70
2021/06/28 10:23:58;;;;;;;4.82;3.60;;;;;;;32.42;41.53;99622.09;5093892;27;20401;-69
2021/06/28 10:26:54;;;;;;;4.75;3.40;;;;;;;32.35;41.02;99623.66;5194341;27;20384;-69
2021/06/28 10:29:56;;;;;;;4.50;3.40;;;;;;;31.96;41.59;99621.97;5092082;27;20414;-69
2021/06/28 10:32:50;;;;;;;4.50;3.20;;;;;;;32.14;41.34;99628.25;5194427;27;20392;-68
2021/06/28 10:35:49;;;;;;;7.03;3.70;;;;;;;32.20;40.65;99627.72;5091401;27;20887;-69
2021/06/28 10:38:47;;;;;;;4.65;3.72;;;;;;;32.10;40.56;99616.31;5093890;27;20913;-68
2021/06/28 10:41:52;;;;;;;4.80;3.20;;;;;;;31.51;42.01;99640.91;5092979;27;20439;-69
2021/06/28 10:44:50;;;;;;;4.97;3.70;;;;;;;31.03;42.35;99632.78;5152938;27;20598;-68
2021/06/28 10:47:34;;;;;;;5.28;3.78;;;;;;;30.72;43.00;99630.22;5092099;27;20875;-69
2021/06/28 10:50:20;;;;;;;6.97;4.50;;;;;;;30.62;42.96;99634.59;5132099;27;20883;-68
2021/06/28 10:53:14;;;;;;;4.90;3.38;;;;;;;30.77;42.76;99633.28;5091390;27;20399;-68
2021/06/28 10:55:55;;;;;;;5.32;3.42;;;;;;;31.03;42.67;99629.31;5091460;28;20059;-69
2021/06/28 10:58:34;;;;;;;4.18;3.30;;;;;;;30.87;42.34;99621.84;5091106;28;20041;-69
2021/06/28 11:01:16;;;;;;;4.57;3.30;;;;;;;30.67;42.58;99622.69;5091094;28;20041;-67
2021/06/28 11:04:06;;;;;;;4.63;3.30;;;;;;;30.72;42.87;99586.25;5091380;28;20440;-70
2021/06/28 11:07:04;;;;;;;4.78;3.20;;;;;;;31.10;42.43;99623.38;5090887;28;20498;-69
2021/06/28 11:09:50;;;;;;;4.32;3.42;;;;;;;31.18;43.09;99622.72;5091353;28;20047;-69
2021/06/28 11:12:35;;;;;;;4.32;3.38;;;;;;;31.91;42.24;99610.97;5090738;28;20044;-69
2021/06/28 11:15:26;;;;;;;4.10;3.08;;;;;;;32.48;42.54;99611.00;5090900;28;20047;-69
2021/06/28 11:18:06;;;;;;;5.82;3.55;;;;;;;32.58;41.19;99611.84;5090768;28;20051;-70
2021/06/28 11:20:53;;;;;;;4.65;3.15;;;;;;;33.06;41.14;99594.06;5090713;28;20044;-69
2021/06/28 11:23:33;;;;;;;4.68;3.22;;;;;;;33.24;39.59;99587.94;5090591;28;20467;-69
2021/06/28 11:26:03;;;;;;;;;;;;;;;33.23;38.77;99581.00;5090582;28;20072;-69
2021/06/28 11:29:01;;;;;;;3.97;3.10;;;;;;;32.47;38.83;99577.59;5130180;27;20455;-69
2021/06/28 11:32:12;;;;;;;4.35;2.90;;;;;;;31.79;40.10;99581.22;5194682;27;20392;-69
2021/06/28 11:34:44;;;;;;;4.03;3.10;;;;;;;31.93;39.80;99582.63;5173270;27;20054;-69
2021/06/28 11:37:13;;;;;;;3.55;2.88;;;;;;;31.95;39.99;99581.50;5173332;27;20103;-69
2021/06/28 11:39:55;;;;;;;3.83;3.00;;;;;;;32.12;39.95;99580.84;5173586;27;20050;-69
2021/06/28 11:43:04;;;;;;;3.53;2.70;;;;;;;32.70;40.35;99581.63;5091668;27;20386;-69
2021/06/28 11:45:50;;;;;;;4.97;3.37;;;;;;;33.23;40.19;99578.38;4818825;27;11026158;-69
2021/06/28 11:48:49;;;;;;;4.68;3.30;;;;;;;32.92;39.60;99583.88;5134391;27;20396;-68
2021/06/28 11:51:41;;;;;;;4.57;3.50;;;;;;;32.47;40.06;99569.66;5194878;27;20385;-68
2021/06/28 11:54:36;;;;;;;3.95;3.20;;;;;;;32.26;39.87;99563.72;5091553;27;20392;-68
2021/06/28 11:57:32;;;;;;;4.32;3.40;;;;;;;32.29;40.41;99552.88;5107269;27;20397;-71
2021/06/28 12:00:34;;;;;;;4.30;3.30;;;;;;;32.51;39.95;99551.75;5097371;27;20425;-69
2021/06/28 12:03:38;;;;;;;4.25;3.42;;;;;;;32.82;39.13;99555.81;5111573;27;20392;-68
2021/06/28 12:06:33;;;;;;;3.67;2.80;;;;;;;33.17;38.57;99540.09;5091598;27;20901;-68
2021/06/28 12:09:33;;;;;;;5.70;3.10;;;;;;;33.45;38.75;99538.25;5091808;27;20385;-69
2021/06/28 12:12:25;;;;;;;3.95;3.05;;;;;;;33.42;38.69;99546.50;5194636;27;20862;-69
2021/06/28 12:15:25;;;;;;;3.95;3.28;;;;;;;32.77;38.82;99553.63;5194668;27;20392;-70
2021/06/28 12:18:26;;;;;;;5.10;2.95;;;;;;;32.78;39.87;99539.41;5091943;27;20402;-69
2021/06/28 12:21:28;;;;;;;4.43;3.08;;;;;;;32.82;39.94;99543.44;5195023;27;20373;-70
2021/06/28 12:24:24;;;;;;;4.28;3.10;;;;;;;32.65;39.96;99532.78;5112208;27;20396;-68
2021/06/28 12:27:21;;;;;;;3.70;2.70;;;;;;;32.62;39.92;99544.47;5091116;27;20393;-69
2021/06/28 12:30:08;;;;;;;4.18;3.20;;;;;;;33.11;38.98;99531.91;5131899;27;20379;-68
2021/06/28 12:32:50;;;;;;;4.93;2.90;;;;;;;33.28;39.13;99539.06;5131916;27;20368;-70
2021/06/28 12:35:32;;;;;;;5.10;3.05;;;;;;;33.42;38.68;99533.25;5131594;27;20376;-69
2021/06/28 12:38:20;;;;;;;4.78;2.97;;;;;;;33.40;37.93;99532.56;5090360;27;20385;-70
2021/06/28 12:41:03;;;;;;;4.38;3.30;;;;;;;32.93;38.36;99527.38;5132058;27;20383;-70